Algona, Washington
Current Conditions -  °F | °C
As of 5:53 AM on Saturday 01 Nov 2014 (Local Time) from KSEA Reporting Station
Haze Haze  
Wind Chill: 49°   Ceiling: 500
Heat Index: 49°   Visibility: 2mi
Dew Point: 48°   Wind: 3mph
Humidity: 97%   Direction: 320°NW
Pressure: 29.86"   Gusts: NA
Location:  47.31°N, 122.266°W
Report Text: KSEA 011253Z 32003KT 2SM BR SCT002 OVC005 09/09 A2986 RMK AO2 SLP119 T00940089
Loading
Personal Weather Stations






























Interactive Weather Map
Tropical Storm Tracking
New forecast layout! Learn more

10-Day Weather Forecast

Advertisements
Track Severe Weather on mobile